Time;durP1;ratioP1;P1;durP2;ratioP2;P2;SDS_P1;SDS_P2;PMS_P1;PMS_P2;Temp;Humidity;BMP_temperature;BMP_pressure;BME280_temperature;BME280_humidity;BME280_pressure;Samples;Min_cycle;Max_cycle;Signal;HPM_P1;HPM_P2
2021/07/04 00:04:35;;;;;;;12.70;10.53;;;;;;;17.32;100.00;101061.34;1970704;72;33522;-78
2021/07/04 00:10:22;;;;;;;11.57;10.23;;;;;;;17.39;100.00;101053.27;1946645;74;33490;-78
2021/07/04 00:15:48;;;;;;;10.27;9.27;;;;;;;17.35;100.00;101052.27;1970690;73;31015;-73
2021/07/04 00:21:14;;;;;;;10.43;9.37;;;;;;;17.36;100.00;101047.73;1964196;71;31073;-73
2021/07/04 00:26:39;;;;;;;11.53;9.80;;;;;;;17.27;100.00;101050.52;1970712;73;31009;-79
2021/07/04 00:32:03;;;;;;;11.10;10.00;;;;;;;17.28;100.00;101043.72;1971084;72;31435;-73
2021/07/04 00:37:28;;;;;;;13.40;10.57;;;;;;;17.22;100.00;101043.64;1970825;72;31032;-79
2021/07/04 00:42:52;;;;;;;10.60;9.50;;;;;;;17.17;100.00;101044.35;1970745;73;30937;-73
2021/07/04 00:48:18;;;;;;;11.40;9.83;;;;;;;17.27;100.00;101042.09;1970724;73;32985;-78
2021/07/04 00:53:43;;;;;;;11.83;10.30;;;;;;;17.24;100.00;101037.11;1971014;72;33114;-74
2021/07/04 00:59:08;;;;;;;13.90;9.77;;;;;;;17.30;100.00;101025.98;1970620;73;31166;-79
2021/07/04 01:04:33;;;;;;;13.83;9.90;;;;;;;17.37;100.00;101026.90;1970984;72;31098;-73
2021/07/04 01:09:57;;;;;;;10.70;8.77;;;;;;;17.35;100.00;101032.03;1970637;72;33110;-73
2021/07/04 01:15:25;;;;;;;11.83;9.07;;;;;;;17.48;100.00;101023.22;1970746;72;31058;-79
2021/07/04 01:20:49;;;;;;;10.33;7.63;;;;;;;17.54;100.00;101019.13;1970917;72;31050;-78
2021/07/04 01:26:14;;;;;;;9.77;8.27;;;;;;;17.49;100.00;101023.48;1970882;72;33340;-79
2021/07/04 01:31:40;;;;;;;11.00;8.07;;;;;;;17.57;100.00;101011.43;1970731;72;32897;-73
2021/07/04 01:37:05;;;;;;;10.60;8.03;;;;;;;17.56;100.00;101010.60;1970575;73;32882;-72
2021/07/04 01:42:30;;;;;;;11.33;8.63;;;;;;;17.55;100.00;101003.32;1970763;72;31170;-79
2021/07/04 01:47:54;;;;;;;10.83;7.90;;;;;;;17.50;100.00;101006.89;1970814;73;32970;-72
2021/07/04 01:53:22;;;;;;;10.90;7.97;;;;;;;17.60;100.00;100999.56;1970762;72;31413;-79
2021/07/04 01:58:46;;;;;;;12.53;8.47;;;;;;;17.49;100.00;100992.59;1970621;73;32945;-79
2021/07/04 02:04:10;;;;;;;11.80;8.10;;;;;;;17.52;100.00;100984.91;1970810;73;33557;-79
2021/07/04 02:09:34;;;;;;;11.80;7.60;;;;;;;17.55;100.00;100982.26;1970954;73;31014;-72
2021/07/04 02:15:00;;;;;;;8.87;7.90;;;;;;;17.51;100.00;100984.64;1970672;72;31104;-79
2021/07/04 02:20:34;;;;;;;9.83;7.17;;;;;;;17.56;100.00;100972.68;1968907;71;31596;-79
2021/07/04 02:26:01;;;;;;;9.67;6.87;;;;;;;17.52;100.00;100982.92;1970557;72;30938;-73
2021/07/04 02:31:27;;;;;;;7.13;5.30;;;;;;;17.59;100.00;100972.62;1970900;72;31084;-79
2021/07/04 02:36:51;;;;;;;8.77;6.40;;;;;;;17.57;100.00;100971.53;1970835;73;30940;-73
2021/07/04 02:42:15;;;;;;;8.17;5.90;;;;;;;17.50;100.00;100964.76;1970846;72;30921;-73
2021/07/04 02:47:40;;;;;;;8.37;5.80;;;;;;;17.55;100.00;100965.41;1971001;73;31401;-79
2021/07/04 02:53:05;;;;;;;8.47;6.03;;;;;;;17.57;100.00;100974.34;1970562;73;30926;-78
2021/07/04 02:58:30;;;;;;;8.83;6.10;;;;;;;17.56;100.00;100970.45;1970826;72;31071;-72
2021/07/04 03:03:55;;;;;;;8.77;5.63;;;;;;;17.60;100.00;100971.47;1970990;72;33014;-79
2021/07/04 03:09:20;;;;;;;12.97;6.83;;;;;;;17.55;100.00;100971.59;1970975;72;31533;-73
2021/07/04 03:14:44;;;;;;;8.57;6.70;;;;;;;17.51;100.00;100970.60;1970693;72;30909;-73
2021/07/04 03:20:11;;;;;;;8.73;6.00;;;;;;;17.59;100.00;100963.62;1968986;72;31453;-73
2021/07/04 03:25:36;;;;;;;10.33;6.23;;;;;;;17.52;100.00;100954.00;1970855;72;31544;-78
2021/07/04 03:31:00;;;;;;;10.00;6.37;;;;;;;17.57;100.00;100955.25;1970741;72;30990;-79
2021/07/04 03:36:25;;;;;;;8.53;6.23;;;;;;;17.52;100.00;100948.39;1970516;72;30958;-72
2021/07/04 03:41:49;;;;;;;10.57;6.27;;;;;;;17.54;100.00;100942.67;1970678;72;30997;-79
2021/07/04 03:47:15;;;;;;;6.67;5.70;;;;;;;17.54;100.00;100948.90;1970847;73;33386;-73
2021/07/04 03:52:53;;;;;;;11.40;6.60;;;;;;;17.55;100.00;100948.55;1970820;72;33349;-78
2021/07/04 03:58:14;;;;;;;10.10;6.57;;;;;;;17.59;100.00;100955.19;1970787;72;32947;-79
2021/07/04 04:03:39;;;;;;;11.13;6.67;;;;;;;17.55;100.00;100956.14;1970652;72;31155;-78
2021/07/04 04:09:04;;;;;;;8.60;6.27;;;;;;;17.58;100.00;100953.56;1970602;73;31095;-72
2021/07/04 04:14:28;;;;;;;8.57;6.27;;;;;;;17.54;100.00;100949.70;1970702;72;33541;-79
2021/07/04 04:19:53;;;;;;;10.53;7.17;;;;;;;17.48;100.00;100951.03;1970916;72;30927;-79
2021/07/04 04:25:18;;;;;;;13.63;6.70;;;;;;;17.59;100.00;100946.77;1970499;72;31082;-79
2021/07/04 04:30:42;;;;;;;12.47;7.67;;;;;;;17.55;100.00;100952.77;1970853;72;33496;-79
2021/07/04 04:36:07;;;;;;;10.87;6.60;;;;;;;17.61;100.00;100950.08;1970792;72;30985;-79
2021/07/04 04:41:33;;;;;;;10.00;6.07;;;;;;;17.59;100.00;100945.36;1970782;72;31052;-72
2021/07/04 04:46:57;;;;;;;10.67;6.37;;;;;;;17.71;100.00;100941.30;1970661;73;30974;-72
2021/07/04 04:52:21;;;;;;;10.93;6.60;;;;;;;17.77;100.00;100937.76;1970893;72;31555;-79
2021/07/04 04:57:45;;;;;;;9.33;5.63;;;;;;;17.72;100.00;100929.49;1970912;72;31033;-79
2021/07/04 05:03:11;;;;;;;7.87;5.70;;;;;;;17.83;100.00;100933.64;1970760;72;31003;-79
2021/07/04 05:08:35;;;;;;;9.67;5.97;;;;;;;17.84;100.00;100927.44;1970776;72;30981;-79
2021/07/04 05:14:00;;;;;;;8.73;5.87;;;;;;;17.90;100.00;100928.33;1970804;72;30945;-77
2021/07/04 05:19:25;;;;;;;7.23;5.37;;;;;;;17.87;100.00;100921.98;1970675;72;31051;-71
2021/07/04 05:25:12;;;;;;;8.67;6.17;;;;;;;17.90;100.00;100908.66;1934520;74;31085;-75
2021/07/04 05:30:36;;;;;;;8.70;5.90;;;;;;;17.93;100.00;100910.80;1970922;72;32984;-77
2021/07/04 05:36:20;;;;;;;7.37;5.93;;;;;;;17.97;100.00;100910.37;1946577;74;31050;-70
2021/07/04 05:41:46;;;;;;;8.20;5.23;;;;;;;17.99;100.00;100907.23;1970569;72;33373;-71
2021/07/04 05:47:10;;;;;;;8.13;5.60;;;;;;;18.00;100.00;100903.27;1970538;72;33171;-74
2021/07/04 05:52:41;;;;;;;8.07;5.63;;;;;;;18.00;100.00;100901.87;1970722;73;33444;-74
2021/07/04 05:58:07;;;;;;;10.30;5.03;;;;;;;18.09;100.00;100905.48;1970643;72;31068;-71
2021/07/04 06:03:32;;;;;;;6.17;5.10;;;;;;;17.94;100.00;100900.38;1970780;72;31054;-71
2021/07/04 06:08:56;;;;;;;8.50;4.20;;;;;;;17.92;100.00;100898.50;1970968;72;31089;-71
2021/07/04 06:14:21;;;;;;;7.13;4.47;;;;;;;17.89;100.00;100890.71;1970537;72;30987;-71
2021/07/04 06:19:45;;;;;;;4.57;3.70;;;;;;;17.80;100.00;100893.53;1970796;72;31622;-72
2021/07/04 06:25:13;;;;;;;6.23;3.67;;;;;;;17.55;100.00;100904.19;1970757;73;30932;-77
2021/07/04 06:30:38;;;;;;;5.33;3.10;;;;;;;17.49;100.00;100896.52;1970842;72;31063;-73
2021/07/04 06:36:04;;;;;;;4.43;3.17;;;;;;;17.39;100.00;100901.05;1970877;72;33442;-78
2021/07/04 06:41:28;;;;;;;5.27;3.43;;;;;;;17.55;100.00;100893.78;1970876;72;33597;-76
2021/07/04 06:46:53;;;;;;;4.40;3.70;;;;;;;17.50;100.00;100888.92;1970653;73;32885;-72
2021/07/04 06:52:17;;;;;;;3.97;3.30;;;;;;;17.48;100.00;100878.02;1970597;73;30997;-73
2021/07/04 06:57:41;;;;;;;3.50;2.57;;;;;;;17.47;100.00;100873.55;1970643;72;32981;-71
2021/07/04 07:03:08;;;;;;;5.27;3.10;;;;;;;17.49;100.00;100883.05;1970549;72;31002;-77
2021/07/04 07:08:33;;;;;;;3.80;2.40;;;;;;;17.51;100.00;100875.94;1970942;72;31115;-79
2021/07/04 07:13:57;;;;;;;3.23;2.67;;;;;;;17.54;100.00;100881.49;1971055;72;33033;-76
2021/07/04 07:19:21;;;;;;;3.67;2.80;;;;;;;17.64;100.00;100874.14;1970937;73;32950;-78
2021/07/04 07:24:45;;;;;;;3.57;2.53;;;;;;;17.56;100.00;100881.97;1970758;73;30999;-77
2021/07/04 07:30:12;;;;;;;4.53;2.93;;;;;;;17.75;100.00;100879.69;1971002;72;31513;-77
2021/07/04 07:35:37;;;;;;;5.03;2.70;;;;;;;17.86;100.00;100880.14;1970575;73;31517;-72
2021/07/04 07:41:01;;;;;;;3.37;2.17;;;;;;;18.02;100.00;100883.50;1970962;72;31578;-78
2021/07/04 07:46:26;;;;;;;2.90;2.10;;;;;;;18.06;100.00;100878.02;1970904;72;30983;-71
2021/07/04 07:51:50;;;;;;;2.27;2.07;;;;;;;18.15;100.00;100882.47;1970647;72;30960;-70
2021/07/04 07:57:15;;;;;;;1.97;1.87;;;;;;;18.18;100.00;100887.41;1970754;73;31037;-76
2021/07/04 08:02:41;;;;;;;3.17;2.00;;;;;;;18.26;100.00;100892.79;1970539;72;30972;-78
2021/07/04 08:08:08;;;;;;;2.00;1.90;;;;;;;18.46;100.00;100887.00;1970640;73;31474;-74
2021/07/04 08:13:32;;;;;;;2.73;2.10;;;;;;;18.62;100.00;100888.11;1970710;72;31061;-71
2021/07/04 08:18:57;;;;;;;2.73;1.90;;;;;;;18.37;100.00;100881.98;1970720;72;31458;-77
2021/07/04 08:24:23;;;;;;;3.60;2.43;;;;;;;18.62;100.00;100874.04;1970625;72;30944;-79
2021/07/04 08:29:49;;;;;;;4.10;2.43;;;;;;;18.51;100.00;100874.16;1970711;72;31396;-75
2021/07/04 08:35:14;;;;;;;3.90;2.50;;;;;;;18.56;100.00;100860.77;1970270;73;30970;-78
2021/07/04 08:40:44;;;;;;;2.60;2.33;;;;;;;18.77;100.00;100852.95;1970342;73;30939;-72
2021/07/04 08:46:19;;;;;;;5.00;2.57;;;;;;;18.90;100.00;100849.06;1970471;73;30929;-71
2021/07/04 08:51:44;;;;;;;3.50;2.80;;;;;;;18.81;100.00;100844.90;1970338;72;30953;-72
2021/07/04 08:57:09;;;;;;;2.87;2.40;;;;;;;18.99;100.00;100836.59;1970723;73;31520;-72
2021/07/04 09:02:37;;;;;;;4.67;2.90;;;;;;;18.99;100.00;100832.95;1970882;73;30987;-78
2021/07/04 09:08:08;;;;;;;3.07;2.43;;;;;;;19.13;100.00;100827.84;1970708;72;30994;-78
2021/07/04 09:13:33;;;;;;;5.23;2.50;;;;;;;19.18;100.00;100824.00;1970779;72;30939;-78
2021/07/04 09:19:13;;;;;;;3.73;2.60;;;;;;;19.39;100.00;100819.17;1970901;73;33524;-78
2021/07/04 09:24:41;;;;;;;3.00;2.40;;;;;;;19.61;100.00;100805.33;1970690;73;31079;-73
2021/07/04 09:30:16;;;;;;;6.90;3.00;;;;;;;19.95;100.00;100797.33;1970722;72;30982;-78
2021/07/04 09:35:54;;;;;;;3.83;2.57;;;;;;;19.67;100.00;100792.69;1970676;73;33363;-78
2021/07/04 09:41:19;;;;;;;6.87;6.17;;;;;;;19.45;100.00;100776.99;1970757;72;31389;-73
2021/07/04 09:46:43;;;;;;;4.23;2.80;;;;;;;19.92;100.00;100769.84;1970903;72;31443;-73
2021/07/04 09:52:17;;;;;;;2.87;2.47;;;;;;;20.79;100.00;100759.63;1970619;73;30931;-73
2021/07/04 09:57:58;;;;;;;2.53;2.20;;;;;;;20.35;100.00;100746.75;1970732;72;30993;-73
2021/07/04 10:03:24;;;;;;;3.60;2.37;;;;;;;19.95;100.00;100741.52;1970428;72;31045;-72
2021/07/04 10:08:59;;;;;;;4.33;2.13;;;;;;;19.75;100.00;100741.03;1970723;73;31160;-78
2021/07/04 10:14:23;;;;;;;2.47;2.07;;;;;;;19.60;100.00;100751.55;1970637;72;31340;-72
2021/07/04 10:19:51;;;;;;;1.63;1.53;;;;;;;19.08;100.00;100755.67;1970682;72;30932;-72
2021/07/04 10:25:16;;;;;;;2.60;1.73;;;;;;;18.79;100.00;100754.92;1970622;73;30980;-77
2021/07/04 10:30:42;;;;;;;2.60;1.40;;;;;;;18.83;100.00;100753.89;1970769;72;31475;-73
2021/07/04 10:36:15;;;;;;;3.33;1.40;;;;;;;18.86;100.00;100753.23;1970822;72;31353;-72
2021/07/04 10:41:56;;;;;;;2.67;1.83;;;;;;;19.20;100.00;100755.50;1970941;73;31435;-71
2021/07/04 10:47:45;;;;;;;2.63;1.90;;;;;;;19.54;100.00;100753.78;1970959;73;30980;-73
2021/07/04 10:53:10;;;;;;;4.03;2.00;;;;;;;19.69;100.00;100743.82;1970954;73;33466;-73
2021/07/04 10:58:55;;;;;;;2.43;2.13;;;;;;;20.08;100.00;100743.76;1970478;72;30995;-70
2021/07/04 11:05:02;;;;;;;3.03;2.27;;;;;;;20.78;100.00;100726.33;1970725;72;30978;-77
2021/07/04 11:11:12;;;;;;;2.03;1.80;;;;;;;21.00;100.00;100710.03;1970662;72;31074;-73
2021/07/04 11:16:54;;;;;;;3.58;2.00;;;;;;;21.17;100.00;100711.98;1970590;72;31159;-77
2021/07/04 11:22:19;;;;;;;2.27;2.07;;;;;;;20.60;100.00;100708.61;1942682;72;30945;-78
2021/07/04 11:27:43;;;;;;;5.77;2.23;;;;;;;20.56;100.00;100702.03;1970709;72;31787;-77
2021/07/04 11:33:31;;;;;;;2.77;2.37;;;;;;;20.55;100.00;100689.92;1970572;73;30930;-78
2021/07/04 11:39:03;;;;;;;2.90;2.23;;;;;;;20.67;100.00;100685.65;1970691;73;30920;-73
2021/07/04 11:44:30;;;;;;;2.37;2.17;;;;;;;20.88;100.00;100667.11;1970429;72;31508;-77
2021/07/04 11:49:54;;;;;;;2.90;2.27;;;;;;;20.89;100.00;100659.70;1970578;72;30973;-77
2021/07/04 11:55:18;;;;;;;3.17;1.90;;;;;;;21.16;100.00;100652.43;1970797;73;30999;-72
2021/07/04 12:00:46;;;;;;;2.37;2.10;;;;;;;21.55;100.00;100650.66;1970569;73;31410;-72
2021/07/04 12:06:15;;;;;;;2.05;1.85;;;;;;;21.42;100.00;100651.09;1970413;72;31032;-78
2021/07/04 12:11:53;;;;;;;4.00;1.90;;;;;;;21.23;100.00;100637.08;1970468;73;30979;-78
2021/07/04 12:17:31;;;;;;;2.05;1.90;;;;;;;21.60;100.00;100633.44;1970792;72;30970;-69
2021/07/04 12:23:05;;;;;;;2.43;1.90;;;;;;;21.57;100.00;100614.35;1970573;72;31435;-77
2021/07/04 12:28:31;;;;;;;1.93;1.63;;;;;;;21.92;100.00;100608.80;1970745;72;31406;-78
2021/07/04 12:33:55;;;;;;;2.40;2.00;;;;;;;22.12;100.00;100606.86;1970646;72;31467;-73
2021/07/04 12:39:19;;;;;;;2.70;1.40;;;;;;;22.05;100.00;100610.91;1970510;72;30939;-78
2021/07/04 12:44:56;;;;;;;2.00;1.30;;;;;;;21.69;100.00;100593.67;1970489;72;30974;-73
2021/07/04 12:50:42;;;;;;;3.23;1.70;;;;;;;21.58;100.00;100593.39;1946250;74;31657;-79
2021/07/04 12:53:11;;;;;;;2.10;1.80;;;;;;;;;;1906745;74;24232;-72
2021/07/04 12:59:01;;;;;;;2.27;2.03;;;;;;;22.08;100.00;100602.50;1946670;74;30993;-78
2021/07/04 13:04:48;;;;;;;2.13;1.93;;;;;;;21.53;100.00;100544.20;1946238;74;31041;-78
2021/07/04 13:10:37;;;;;;;1.60;1.50;;;;;;;21.66;100.00;100590.96;1946059;73;31038;-73
2021/07/04 13:16:15;;;;;;;2.30;1.80;;;;;;;21.88;100.00;100583.00;1970467;72;31018;-73
2021/07/04 13:22:00;;;;;;;4.25;1.90;;;;;;;21.51;100.00;100572.02;1914648;74;31564;-78
2021/07/04 13:27:28;;;;;;;1.70;1.50;;;;;;;21.52;100.00;100577.09;1970824;72;31455;-74
2021/07/04 13:33:01;;;;;;;1.77;1.33;;;;;;;;;;1970375;72;30945;-74
2021/07/04 13:35:32;;;;;;;1.97;1.67;;;;;;;21.45;100.00;100561.34;1945764;74;24132;-73
2021/07/04 13:40:58;;;;;;;1.62;1.50;;;;;;;21.88;100.00;100544.82;1970813;73;31120;-73
2021/07/04 13:46:25;;;;;;;2.33;1.33;;;;;;;21.78;100.00;100549.86;1970336;73;30936;-73
2021/07/04 13:51:49;;;;;;;2.47;1.27;;;;;;;21.41;100.00;100559.02;1970682;72;31005;-78
2021/07/04 13:57:14;;;;;;;1.30;1.20;;;;;;;21.28;100.00;100556.88;1970573;72;31018;-78
2021/07/04 14:02:39;;;;;;;1.77;1.40;;;;;;;21.43;100.00;100557.49;1970733;72;32236;-78
2021/07/04 14:08:06;;;;;;;3.20;1.40;;;;;;;21.81;100.00;100553.97;1970562;73;31010;-78
2021/07/04 14:13:35;;;;;;;4.12;1.40;;;;;;;21.86;100.00;100562.17;1970595;72;30969;-74
2021/07/04 14:19:00;;;;;;;1.72;1.27;;;;;;;21.63;100.00;100551.30;1970760;73;31022;-73
2021/07/04 14:24:24;;;;;;;2.40;1.40;;;;;;;21.43;100.00;100549.02;1970504;73;30974;-73
2021/07/04 14:29:49;;;;;;;3.07;1.70;;;;;;;21.70;100.00;100552.88;1970418;73;30961;-72
2021/07/04 14:35:15;;;;;;;2.27;1.50;;;;;;;21.21;100.00;100557.54;1970662;72;30959;-78
2021/07/04 14:40:39;;;;;;;1.97;1.70;;;;;;;20.31;100.00;100600.53;1970334;73;30950;-78
2021/07/04 14:46:04;;;;;;;1.93;1.80;;;;;;;20.07;100.00;100613.83;1970481;72;30973;-73
2021/07/04 14:51:28;;;;;;;1.87;1.27;;;;;;;20.21;100.00;100632.59;1970790;72;30901;-72
2021/07/04 14:56:52;;;;;;;1.60;0.90;;;;;;;19.48;100.00;100636.84;1970286;73;31031;-77
2021/07/04 15:02:20;;;;;;;1.80;1.20;;;;;;;19.23;100.00;100630.89;1970502;73;31015;-70
2021/07/04 15:08:05;;;;;;;1.43;1.00;;;;;;;19.31;100.00;100621.52;1946145;74;31138;-71
2021/07/04 15:13:30;;;;;;;1.13;0.80;;;;;;;19.52;100.00;100605.38;1970572;72;33364;-73
2021/07/04 15:18:54;;;;;;;1.43;0.80;;;;;;;19.71;100.00;100602.81;1970432;72;31090;-71
2021/07/04 15:24:19;;;;;;;1.50;1.03;;;;;;;19.68;100.00;100583.77;1970632;72;30994;-72
2021/07/04 15:29:44;;;;;;;1.53;1.10;;;;;;;19.67;100.00;100578.51;1970504;72;30958;-72
2021/07/04 15:35:10;;;;;;;0.97;0.90;;;;;;;20.22;100.00;100569.37;1970412;72;31008;-78
2021/07/04 15:40:34;;;;;;;2.50;1.10;;;;;;;20.31;100.00;100564.44;1970549;72;30889;-72
2021/07/04 15:45:58;;;;;;;1.33;1.20;;;;;;;20.17;100.00;100552.11;1970570;73;31466;-71
2021/07/04 15:51:23;;;;;;;2.40;1.20;;;;;;;20.06;100.00;100565.66;1970452;72;30890;-73
2021/07/04 15:56:48;;;;;;;2.47;1.13;;;;;;;20.21;100.00;100557.84;1970517;72;31373;-73
2021/07/04 16:02:13;;;;;;;5.00;1.50;;;;;;;20.58;100.00;100548.09;1970525;72;31489;-72
2021/07/04 16:07:38;;;;;;;2.20;1.20;;;;;;;20.50;100.00;100535.55;1970493;72;31160;-73
2021/07/04 16:13:05;;;;;;;2.90;1.20;;;;;;;20.35;100.00;100533.75;1970499;72;30966;-79
2021/07/04 16:18:30;;;;;;;5.53;1.50;;;;;;;20.22;100.00;100525.66;1970503;72;31036;-78
2021/07/04 16:23:55;;;;;;;2.33;1.33;;;;;;;20.13;100.00;100534.84;1970543;72;31532;-78
2021/07/04 16:29:20;;;;;;;4.50;1.53;;;;;;;19.97;100.00;100537.59;1970806;72;30970;-73
2021/07/04 16:34:44;;;;;;;3.57;1.60;;;;;;;19.96;100.00;100535.95;1970549;72;30959;-77
2021/07/04 16:40:14;;;;;;;4.33;1.83;;;;;;;19.73;100.00;100534.22;1970662;72;31491;-77
2021/07/04 16:45:42;;;;;;;4.60;2.10;;;;;;;19.63;100.00;100532.48;1970788;73;31477;-73
2021/07/04 16:51:07;;;;;;;5.42;2.40;;;;;;;19.58;100.00;100539.18;1954426;72;27975;-78
2021/07/04 16:56:33;;;;;;;4.07;2.10;;;;;;;19.47;100.00;100536.58;1970510;72;30935;-78
2021/07/04 17:01:58;;;;;;;6.13;2.43;;;;;;;19.43;100.00;100528.61;1970238;72;30946;-78
2021/07/04 17:07:22;;;;;;;4.73;1.80;;;;;;;19.41;100.00;100549.25;1971013;72;31481;-72
2021/07/04 17:12:47;;;;;;;4.60;1.60;;;;;;;19.24;100.00;100539.61;1970828;72;30982;-77
2021/07/04 17:18:15;;;;;;;5.40;2.20;;;;;;;19.09;100.00;100551.80;1972108;72;31025;-76
2021/07/04 17:23:39;;;;;;;3.63;2.20;;;;;;;19.05;100.00;100538.18;1971057;72;30929;-77
2021/07/04 17:29:04;;;;;;;3.73;2.20;;;;;;;19.10;100.00;100541.36;1971859;72;31127;-76
2021/07/04 17:34:28;;;;;;;6.77;2.20;;;;;;;19.02;100.00;100530.44;1970708;72;30970;-74
2021/07/04 17:39:52;;;;;;;5.30;2.17;;;;;;;19.18;100.00;100534.80;1971097;73;30954;-77
2021/07/04 17:45:18;;;;;;;4.53;1.87;;;;;;;19.29;100.00;100534.58;1970880;73;31059;-72
2021/07/04 17:50:42;;;;;;;5.20;1.80;;;;;;;19.24;100.00;100527.77;1971693;71;31013;-77
2021/07/04 17:56:10;;;;;;;2.87;1.50;;;;;;;19.42;100.00;100534.82;1971826;72;30935;-76
2021/07/04 18:01:34;;;;;;;3.57;1.27;;;;;;;19.48;100.00;100543.87;1971781;73;31376;-76
2021/07/04 18:06:59;;;;;;;2.17;0.87;;;;;;;19.34;100.00;100551.84;1970990;73;31029;-72
2021/07/04 18:12:23;;;;;;;0.53;0.53;;;;;;;19.13;100.00;100544.05;1971188;73;30884;-77
2021/07/04 18:17:48;;;;;;;0.30;0.30;;;;;;;19.13;100.00;100562.34;1971145;72;30892;-77
2021/07/04 18:23:13;;;;;;;0.40;0.30;;;;;;;19.07;100.00;100572.45;1970780;73;30886;-72
2021/07/04 18:28:39;;;;;;;0.30;0.20;;;;;;;18.92;100.00;100571.70;1970965;73;30975;-77
2021/07/04 18:34:03;;;;;;;0.30;0.30;;;;;;;18.86;100.00;100584.36;1971095;72;31365;-80
2021/07/04 18:39:28;;;;;;;0.30;0.30;;;;;;;18.77;100.00;100585.03;1971025;72;31434;-77
2021/07/04 18:44:52;;;;;;;2.77;0.70;;;;;;;19.03;100.00;100585.58;1970952;72;31454;-75
2021/07/04 18:50:17;;;;;;;0.30;0.30;;;;;;;19.07;100.00;100579.48;1970563;73;31316;-79
2021/07/04 18:55:43;;;;;;;1.20;0.40;;;;;;;18.71;100.00;100587.81;1971668;72;31367;-75
2021/07/04 19:01:09;;;;;;;0.87;0.40;;;;;;;18.75;100.00;100585.95;1970630;73;31013;-71
2021/07/04 19:06:36;;;;;;;0.83;0.60;;;;;;;18.69;100.00;100585.95;1971514;73;30866;-75
2021/07/04 19:12:02;;;;;;;1.17;0.73;;;;;;;18.59;100.00;100582.14;1971893;73;30908;-75
2021/07/04 19:17:26;;;;;;;0.80;0.50;;;;;;;18.59;100.00;100589.17;1970569;72;30941;-77
2021/07/04 19:22:50;;;;;;;0.50;0.50;;;;;;;18.66;100.00;100599.27;1970626;72;30959;-76
2021/07/04 19:28:17;;;;;;;0.60;0.60;;;;;;;18.63;100.00;100597.16;1970987;73;31454;-74
2021/07/04 19:33:44;;;;;;;0.90;0.60;;;;;;;18.69;100.00;100597.20;1970748;73;30999;-78
2021/07/04 19:39:08;;;;;;;0.70;0.40;;;;;;;18.75;100.00;100604.24;1970893;72;30881;-74
2021/07/04 19:44:36;;;;;;;1.17;0.60;;;;;;;18.57;100.00;100614.00;1970639;72;30918;-74
2021/07/04 19:50:03;;;;;;;1.67;1.27;;;;;;;18.24;100.00;100627.16;1970994;73;30938;-73
2021/07/04 19:55:29;;;;;;;2.83;1.50;;;;;;;18.05;100.00;100638.88;1971778;72;30980;-75
2021/07/04 20:00:53;;;;;;;3.63;2.03;;;;;;;17.80;100.00;100644.87;1971018;72;30908;-73
2021/07/04 20:06:18;;;;;;;3.47;2.30;;;;;;;17.67;100.00;100652.98;1970536;73;31003;-74
2021/07/04 20:11:43;;;;;;;3.80;2.53;;;;;;;17.54;100.00;100658.20;1972006;72;31487;-74
2021/07/04 20:17:08;;;;;;;4.20;2.83;;;;;;;17.41;100.00;100662.88;1970665;72;30987;-82
2021/07/04 20:22:53;;;;;;;4.40;2.73;;;;;;;17.28;100.00;100661.90;1966781;72;32904;-79
2021/07/04 20:28:23;;;;;;;3.37;2.40;;;;;;;17.22;100.00;100670.27;1970773;72;30933;-74
2021/07/04 20:33:50;;;;;;;5.37;2.43;;;;;;;17.19;100.00;100682.75;1970747;72;31199;-79
2021/07/04 20:39:16;;;;;;;3.03;2.03;;;;;;;17.12;100.00;100690.84;1970837;72;32975;-82
2021/07/04 20:44:41;;;;;;;3.60;2.70;;;;;;;16.85;100.00;100696.25;1971750;73;31006;-75
2021/07/04 20:50:26;;;;;;;4.57;2.70;;;;;;;16.83;100.00;100704.16;1947037;74;31116;-77
2021/07/04 20:56:09;;;;;;;3.50;3.20;;;;;;;16.80;100.00;100716.88;1946781;74;31205;-73
2021/07/04 21:01:34;;;;;;;3.20;2.70;;;;;;;16.87;100.00;100716.95;1970672;73;31569;-73
2021/07/04 21:06:59;;;;;;;4.37;3.00;;;;;;;16.91;100.00;100705.30;1970714;72;30929;-76
2021/07/04 21:12:23;;;;;;;5.90;2.97;;;;;;;16.73;100.00;100703.91;1970848;72;32897;-77
2021/07/04 21:17:48;;;;;;;4.40;2.90;;;;;;;16.81;100.00;100698.08;1970978;72;30961;-73
2021/07/04 21:23:14;;;;;;;4.50;3.00;;;;;;;16.50;100.00;100695.97;1970607;73;32937;-77
2021/07/04 21:28:39;;;;;;;5.77;3.67;;;;;;;16.45;100.00;100699.75;1970817;73;30971;-74
2021/07/04 21:34:04;;;;;;;6.07;3.60;;;;;;;16.50;100.00;100700.17;1970860;72;33112;-77
2021/07/04 21:39:28;;;;;;;7.30;3.70;;;;;;;16.49;100.00;100702.72;1970653;73;32914;-77
2021/07/04 21:44:52;;;;;;;5.10;3.57;;;;;;;16.47;100.00;100705.04;1970656;73;31085;-74
2021/07/04 21:50:20;;;;;;;5.00;3.50;;;;;;;16.48;100.00;100703.86;1971080;72;33559;-74
2021/07/04 21:55:44;;;;;;;7.93;3.83;;;;;;;16.37;100.00;100703.38;1970927;73;32868;-77
2021/07/04 22:01:08;;;;;;;5.80;4.60;;;;;;;16.44;100.00;100703.70;1970878;73;32861;-74
2021/07/04 22:06:33;;;;;;;5.90;4.30;;;;;;;16.50;100.00;100707.18;1970847;72;33529;-74
2021/07/04 22:11:57;;;;;;;5.90;4.70;;;;;;;16.42;100.00;100710.80;1970909;72;33402;-77
2021/07/04 22:17:22;;;;;;;7.43;5.27;;;;;;;16.38;100.00;100705.03;1971028;73;32921;-76
2021/07/04 22:23:07;;;;;;;10.17;5.27;;;;;;;16.47;100.00;100701.66;1946777;74;31557;-75
2021/07/04 22:28:32;;;;;;;7.40;4.97;;;;;;;16.46;100.00;100704.78;1971231;72;33512;-77
2021/07/04 22:33:57;;;;;;;7.60;5.60;;;;;;;16.50;100.00;100700.17;1971068;73;33430;-75
2021/07/04 22:39:22;;;;;;;9.20;5.80;;;;;;;16.58;100.00;100708.63;1971104;72;33004;-74
2021/07/04 22:44:48;;;;;;;11.40;5.63;;;;;;;16.47;100.00;100715.69;1970976;73;33041;-75
2021/07/04 22:50:17;;;;;;;12.73;7.10;;;;;;;16.48;100.00;100720.69;1971076;72;31010;-77
2021/07/04 22:55:41;;;;;;;11.10;6.13;;;;;;;16.53;100.00;100709.31;1971022;73;30972;-75
2021/07/04 23:01:09;;;;;;;11.13;6.73;;;;;;;16.56;100.00;100712.28;1970941;73;32912;-75
2021/07/04 23:06:34;;;;;;;12.13;5.97;;;;;;;16.51;100.00;100715.84;1971037;72;30955;-75
2021/07/04 23:11:59;;;;;;;14.10;6.87;;;;;;;16.56;100.00;100710.88;1970822;72;32971;-74
2021/07/04 23:17:23;;;;;;;17.43;7.27;;;;;;;16.57;100.00;100706.96;1970966;73;32893;-77
2021/07/04 23:22:49;;;;;;;12.97;6.67;;;;;;;16.47;100.00;100704.47;1971023;72;32974;-77
2021/07/04 23:28:15;;;;;;;14.13;6.97;;;;;;;16.45;100.00;100710.14;1971170;72;32935;-74
2021/07/04 23:33:39;;;;;;;13.00;7.10;;;;;;;16.33;100.00;100705.18;1971064;73;33098;-74
2021/07/04 23:39:06;;;;;;;11.13;6.47;;;;;;;16.22;100.00;100700.45;1971189;73;33011;-74
2021/07/04 23:44:31;;;;;;;18.70;7.77;;;;;;;16.32;100.00;100710.53;1971032;73;33033;-77
2021/07/04 23:49:56;;;;;;;12.47;7.20;;;;;;;16.29;100.00;100703.61;1970956;72;32966;-75
2021/07/04 23:55:20;;;;;;;11.63;6.60;;;;;;;16.21;100.00;100707.23;1971098;72;33374;-75
